sensor_id;sensor_type;location;lat;lon;timestamp;P1;durP1;ratioP1;P2;durP2;ratioP2
53714;SDS011;39608;55.630;37.864;2024-03-06T00:00:09;2.63;;;1.38;;
53714;SDS011;39608;55.630;37.864;2024-03-06T00:05:12;3.45;;;1.55;;
53714;SDS011;39608;55.630;37.864;2024-03-06T00:10:15;1.33;;;1.23;;
53714;SDS011;39608;55.630;37.864;2024-03-06T00:15:18;3.38;;;1.90;;
53714;SDS011;39608;55.630;37.864;2024-03-06T00:20:20;4.55;;;2.15;;
53714;SDS011;39608;55.630;37.864;2024-03-06T00:25:23;4.07;;;2.05;;
53714;SDS011;39608;55.630;37.864;2024-03-06T00:30:25;3.88;;;2.22;;
53714;SDS011;39608;55.630;37.864;2024-03-06T00:35:27;6.25;;;2.00;;
53714;SDS011;39608;55.630;37.864;2024-03-06T00:40:31;4.20;;;1.88;;
53714;SDS011;39608;55.630;37.864;2024-03-06T00:45:33;4.70;;;1.90;;
53714;SDS011;39608;55.630;37.864;2024-03-06T00:50:35;4.88;;;1.70;;
53714;SDS011;39608;55.630;37.864;2024-03-06T00:55:39;5.13;;;2.28;;
53714;SDS011;39608;55.630;37.864;2024-03-06T01:00:41;2.67;;;2.00;;
53714;SDS011;39608;55.630;37.864;2024-03-06T01:05:43;3.42;;;2.08;;
53714;SDS011;39608;55.630;37.864;2024-03-06T01:10:47;4.68;;;1.88;;
53714;SDS011;39608;55.630;37.864;2024-03-06T01:15:49;3.63;;;2.03;;
53714;SDS011;39608;55.630;37.864;2024-03-06T01:20:51;10.10;;;2.25;;
53714;SDS011;39608;55.630;37.864;2024-03-06T01:25:54;2.78;;;1.63;;
53714;SDS011;39608;55.630;37.864;2024-03-06T01:30:56;6.22;;;1.83;;
53714;SDS011;39608;55.630;37.864;2024-03-06T01:35:59;3.42;;;1.65;;
53714;SDS011;39608;55.630;37.864;2024-03-06T01:41:02;7.50;;;1.73;;
53714;SDS011;39608;55.630;37.864;2024-03-06T01:46:05;3.38;;;1.92;;
53714;SDS011;39608;55.630;37.864;2024-03-06T01:51:07;1.80;;;1.60;;
53714;SDS011;39608;55.630;37.864;2024-03-06T01:56:10;6.53;;;1.88;;
53714;SDS011;39608;55.630;37.864;2024-03-06T02:01:17;2.17;;;1.70;;
53714;SDS011;39608;55.630;37.864;2024-03-06T02:06:19;7.40;;;1.98;;
53714;SDS011;39608;55.630;37.864;2024-03-06T02:11:24;2.95;;;2.10;;
53714;SDS011;39608;55.630;37.864;2024-03-06T02:16:26;4.88;;;2.17;;
53714;SDS011;39608;55.630;37.864;2024-03-06T02:21:29;5.45;;;2.72;;
53714;SDS011;39608;55.630;37.864;2024-03-06T02:26:31;6.28;;;2.35;;
53714;SDS011;39608;55.630;37.864;2024-03-06T02:31:33;5.55;;;3.08;;
53714;SDS011;39608;55.630;37.864;2024-03-06T02:36:37;7.22;;;2.25;;
53714;SDS011;39608;55.630;37.864;2024-03-06T02:41:39;8.27;;;1.85;;
53714;SDS011;39608;55.630;37.864;2024-03-06T02:46:41;5.25;;;1.65;;
53714;SDS011;39608;55.630;37.864;2024-03-06T02:51:44;4.38;;;2.60;;
53714;SDS011;39608;55.630;37.864;2024-03-06T02:56:46;3.08;;;1.80;;
53714;SDS011;39608;55.630;37.864;2024-03-06T03:01:48;8.15;;;2.17;;
53714;SDS011;39608;55.630;37.864;2024-03-06T03:06:52;3.80;;;2.10;;
53714;SDS011;39608;55.630;37.864;2024-03-06T03:11:54;11.60;;;2.17;;
53714;SDS011;39608;55.630;37.864;2024-03-06T03:16:56;2.03;;;1.50;;
53714;SDS011;39608;55.630;37.864;2024-03-06T03:22:00;4.78;;;2.28;;
53714;SDS011;39608;55.630;37.864;2024-03-06T03:27:04;6.72;;;2.25;;
53714;SDS011;39608;55.630;37.864;2024-03-06T03:32:06;5.20;;;1.85;;
53714;SDS011;39608;55.630;37.864;2024-03-06T03:37:10;4.57;;;1.35;;
53714;SDS011;39608;55.630;37.864;2024-03-06T03:42:12;4.10;;;1.85;;
53714;SDS011;39608;55.630;37.864;2024-03-06T03:47:14;5.85;;;2.28;;
53714;SDS011;39608;55.630;37.864;2024-03-06T03:52:18;11.15;;;2.25;;
53714;SDS011;39608;55.630;37.864;2024-03-06T03:57:20;4.32;;;1.98;;
53714;SDS011;39608;55.630;37.864;2024-03-06T04:02:22;7.57;;;1.83;;
53714;SDS011;39608;55.630;37.864;2024-03-06T04:07:25;3.05;;;2.10;;
53714;SDS011;39608;55.630;37.864;2024-03-06T04:12:27;3.95;;;1.80;;
53714;SDS011;39608;55.630;37.864;2024-03-06T04:17:29;4.07;;;2.35;;
53714;SDS011;39608;55.630;37.864;2024-03-06T04:22:32;5.55;;;2.03;;
53714;SDS011;39608;55.630;37.864;2024-03-06T04:27:34;4.20;;;2.00;;
53714;SDS011;39608;55.630;37.864;2024-03-06T04:32:37;6.78;;;2.15;;
53714;SDS011;39608;55.630;37.864;2024-03-06T04:37:40;6.07;;;1.75;;
53714;SDS011;39608;55.630;37.864;2024-03-06T04:42:42;4.65;;;2.22;;
53714;SDS011;39608;55.630;37.864;2024-03-06T04:47:44;2.55;;;1.67;;
53714;SDS011;39608;55.630;37.864;2024-03-06T04:52:48;8.27;;;2.10;;
53714;SDS011;39608;55.630;37.864;2024-03-06T04:57:51;2.85;;;1.65;;
53714;SDS011;39608;55.630;37.864;2024-03-06T05:02:53;10.70;;;2.45;;
53714;SDS011;39608;55.630;37.864;2024-03-06T05:07:57;4.40;;;2.35;;
53714;SDS011;39608;55.630;37.864;2024-03-06T05:12:59;5.45;;;2.30;;
53714;SDS011;39608;55.630;37.864;2024-03-06T05:18:02;5.40;;;2.38;;
53714;SDS011;39608;55.630;37.864;2024-03-06T05:23:05;5.68;;;2.80;;
53714;SDS011;39608;55.630;37.864;2024-03-06T05:28:07;5.97;;;2.70;;
53714;SDS011;39608;55.630;37.864;2024-03-06T05:33:09;8.23;;;2.33;;
53714;SDS011;39608;55.630;37.864;2024-03-06T05:38:13;3.95;;;2.03;;
53714;SDS011;39608;55.630;37.864;2024-03-06T05:43:15;6.80;;;2.85;;
53714;SDS011;39608;55.630;37.864;2024-03-06T05:48:17;8.40;;;2.38;;
53714;SDS011;39608;55.630;37.864;2024-03-06T05:53:20;5.13;;;2.55;;
53714;SDS011;39608;55.630;37.864;2024-03-06T05:58:22;6.15;;;2.97;;
53714;SDS011;39608;55.630;37.864;2024-03-06T06:03:24;5.90;;;2.53;;
53714;SDS011;39608;55.630;37.864;2024-03-06T06:08:27;6.53;;;2.85;;
53714;SDS011;39608;55.630;37.864;2024-03-06T06:13:29;6.35;;;2.55;;
53714;SDS011;39608;55.630;37.864;2024-03-06T06:18:31;5.38;;;3.03;;
53714;SDS011;39608;55.630;37.864;2024-03-06T06:23:35;3.28;;;2.17;;
53714;SDS011;39608;55.630;37.864;2024-03-06T06:28:37;7.05;;;2.63;;
53714;SDS011;39608;55.630;37.864;2024-03-06T06:33:42;5.88;;;2.53;;
53714;SDS011;39608;55.630;37.864;2024-03-06T06:38:47;4.57;;;2.63;;
53714;SDS011;39608;55.630;37.864;2024-03-06T06:43:50;10.40;;;3.25;;
53714;SDS011;39608;55.630;37.864;2024-03-06T06:48:52;6.10;;;2.72;;
53714;SDS011;39608;55.630;37.864;2024-03-06T06:53:56;7.85;;;2.78;;
53714;SDS011;39608;55.630;37.864;2024-03-06T06:58:58;9.77;;;2.90;;
53714;SDS011;39608;55.630;37.864;2024-03-06T07:04:00;5.10;;;2.50;;
53714;SDS011;39608;55.630;37.864;2024-03-06T07:09:05;10.15;;;2.70;;
53714;SDS011;39608;55.630;37.864;2024-03-06T07:14:09;9.98;;;3.03;;
53714;SDS011;39608;55.630;37.864;2024-03-06T07:19:12;11.35;;;3.25;;
53714;SDS011;39608;55.630;37.864;2024-03-06T07:24:17;8.43;;;3.08;;
53714;SDS011;39608;55.630;37.864;2024-03-06T07:29:19;8.77;;;3.83;;
53714;SDS011;39608;55.630;37.864;2024-03-06T07:34:21;10.57;;;4.75;;
53714;SDS011;39608;55.630;37.864;2024-03-06T07:39:25;13.48;;;3.83;;
53714;SDS011;39608;55.630;37.864;2024-03-06T07:44:29;5.90;;;2.63;;
53714;SDS011;39608;55.630;37.864;2024-03-06T07:49:31;5.70;;;2.80;;
53714;SDS011;39608;55.630;37.864;2024-03-06T07:54:34;6.03;;;2.05;;
53714;SDS011;39608;55.630;37.864;2024-03-06T07:59:36;4.38;;;2.25;;
53714;SDS011;39608;55.630;37.864;2024-03-06T08:04:38;6.43;;;2.50;;
53714;SDS011;39608;55.630;37.864;2024-03-06T08:09:42;8.05;;;2.92;;
53714;SDS011;39608;55.630;37.864;2024-03-06T08:14:43;7.07;;;2.75;;
53714;SDS011;39608;55.630;37.864;2024-03-06T08:19:46;11.45;;;2.70;;
53714;SDS011;39608;55.630;37.864;2024-03-06T08:24:49;6.68;;;2.78;;
53714;SDS011;39608;55.630;37.864;2024-03-06T08:29:51;7.63;;;2.22;;
53714;SDS011;39608;55.630;37.864;2024-03-06T08:34:53;3.15;;;2.17;;
53714;SDS011;39608;55.630;37.864;2024-03-06T08:39:56;4.68;;;2.10;;
53714;SDS011;39608;55.630;37.864;2024-03-06T08:44:59;14.18;;;2.38;;
53714;SDS011;39608;55.630;37.864;2024-03-06T08:50:01;11.85;;;2.75;;
53714;SDS011;39608;55.630;37.864;2024-03-06T08:55:06;10.20;;;3.17;;
53714;SDS011;39608;55.630;37.864;2024-03-06T09:00:09;7.43;;;2.83;;
53714;SDS011;39608;55.630;37.864;2024-03-06T09:05:12;5.80;;;2.65;;
53714;SDS011;39608;55.630;37.864;2024-03-06T09:10:15;5.85;;;2.70;;
53714;SDS011;39608;55.630;37.864;2024-03-06T09:15:19;5.38;;;2.70;;
53714;SDS011;39608;55.630;37.864;2024-03-06T09:20:21;7.13;;;2.90;;
53714;SDS011;39608;55.630;37.864;2024-03-06T09:25:26;10.77;;;3.03;;
53714;SDS011;39608;55.630;37.864;2024-03-06T09:30:29;8.93;;;2.72;;
53714;SDS011;39608;55.630;37.864;2024-03-06T09:35:31;12.77;;;2.90;;
53714;SDS011;39608;55.630;37.864;2024-03-06T09:40:34;9.68;;;3.00;;
53714;SDS011;39608;55.630;37.864;2024-03-06T09:45:37;9.05;;;3.00;;
53714;SDS011;39608;55.630;37.864;2024-03-06T09:50:40;21.33;;;3.83;;
53714;SDS011;39608;55.630;37.864;2024-03-06T09:55:48;10.02;;;4.43;;
53714;SDS011;39608;55.630;37.864;2024-03-06T10:00:52;10.63;;;3.10;;
53714;SDS011;39608;55.630;37.864;2024-03-06T10:05:56;13.60;;;2.67;;
53714;SDS011;39608;55.630;37.864;2024-03-06T10:11:00;4.78;;;2.47;;
53714;SDS011;39608;55.630;37.864;2024-03-06T10:16:02;7.03;;;2.92;;
53714;SDS011;39608;55.630;37.864;2024-03-06T10:21:08;4.77;;;2.30;;
53714;SDS011;39608;55.630;37.864;2024-03-06T10:26:12;7.53;;;2.78;;
53714;SDS011;39608;55.630;37.864;2024-03-06T10:31:15;6.93;;;2.90;;
53714;SDS011;39608;55.630;37.864;2024-03-06T10:36:31;6.63;;;2.38;;
53714;SDS011;39608;55.630;37.864;2024-03-06T10:41:35;6.47;;;3.08;;
53714;SDS011;39608;55.630;37.864;2024-03-06T10:46:37;11.63;;;2.65;;
53714;SDS011;39608;55.630;37.864;2024-03-06T10:51:41;7.63;;;2.30;;
53714;SDS011;39608;55.630;37.864;2024-03-06T10:56:46;8.40;;;2.35;;
53714;SDS011;39608;55.630;37.864;2024-03-06T11:01:49;6.22;;;2.00;;
53714;SDS011;39608;55.630;37.864;2024-03-06T11:06:52;9.10;;;2.45;;
53714;SDS011;39608;55.630;37.864;2024-03-06T11:11:56;5.65;;;2.55;;
53714;SDS011;39608;55.630;37.864;2024-03-06T11:16:59;10.80;;;2.42;;
53714;SDS011;39608;55.630;37.864;2024-03-06T11:22:03;9.20;;;3.25;;
53714;SDS011;39608;55.630;37.864;2024-03-06T11:27:07;16.95;;;3.20;;
53714;SDS011;39608;55.630;37.864;2024-03-06T11:32:12;8.05;;;3.15;;
53714;SDS011;39608;55.630;37.864;2024-03-06T11:37:14;5.00;;;2.92;;
53714;SDS011;39608;55.630;37.864;2024-03-06T11:42:33;8.63;;;3.53;;
53714;SDS011;39608;55.630;37.864;2024-03-06T11:53:00;5.20;;;3.40;;
53714;SDS011;39608;55.630;37.864;2024-03-06T11:58:04;7.50;;;2.80;;
53714;SDS011;39608;55.630;37.864;2024-03-06T12:03:08;8.57;;;2.20;;
53714;SDS011;39608;55.630;37.864;2024-03-06T12:08:10;5.88;;;2.58;;
53714;SDS011;39608;55.630;37.864;2024-03-06T12:13:13;6.90;;;2.38;;
53714;SDS011;39608;55.630;37.864;2024-03-06T12:18:16;7.15;;;2.20;;
53714;SDS011;39608;55.630;37.864;2024-03-06T12:23:19;10.38;;;2.38;;
53714;SDS011;39608;55.630;37.864;2024-03-06T12:28:27;8.55;;;2.22;;
53714;SDS011;39608;55.630;37.864;2024-03-06T12:33:30;12.15;;;2.42;;
53714;SDS011;39608;55.630;37.864;2024-03-06T12:38:32;8.80;;;1.92;;
53714;SDS011;39608;55.630;37.864;2024-03-06T12:43:36;3.90;;;2.28;;
53714;SDS011;39608;55.630;37.864;2024-03-06T12:48:38;4.13;;;2.60;;
53714;SDS011;39608;55.630;37.864;2024-03-06T12:53:40;8.43;;;2.15;;
53714;SDS011;39608;55.630;37.864;2024-03-06T12:58:43;9.35;;;2.55;;
53714;SDS011;39608;55.630;37.864;2024-03-06T13:03:45;8.15;;;2.20;;
53714;SDS011;39608;55.630;37.864;2024-03-06T13:08:47;7.15;;;1.80;;
53714;SDS011;39608;55.630;37.864;2024-03-06T13:13:51;5.68;;;2.00;;
53714;SDS011;39608;55.630;37.864;2024-03-06T13:18:54;8.38;;;2.47;;
53714;SDS011;39608;55.630;37.864;2024-03-06T13:23:57;12.50;;;2.65;;
53714;SDS011;39608;55.630;37.864;2024-03-06T13:29:01;6.93;;;2.70;;
53714;SDS011;39608;55.630;37.864;2024-03-06T13:34:03;5.90;;;2.17;;
53714;SDS011;39608;55.630;37.864;2024-03-06T13:39:05;5.65;;;2.20;;
53714;SDS011;39608;55.630;37.864;2024-03-06T13:44:08;8.70;;;2.35;;
53714;SDS011;39608;55.630;37.864;2024-03-06T13:54:34;5.75;;;2.70;;
53714;SDS011;39608;55.630;37.864;2024-03-06T13:59:36;9.27;;;2.80;;
53714;SDS011;39608;55.630;37.864;2024-03-06T14:04:39;7.95;;;2.42;;
53714;SDS011;39608;55.630;37.864;2024-03-06T14:09:42;9.65;;;2.60;;
53714;SDS011;39608;55.630;37.864;2024-03-06T14:14:44;10.45;;;2.85;;
53714;SDS011;39608;55.630;37.864;2024-03-06T14:19:46;10.57;;;2.95;;
53714;SDS011;39608;55.630;37.864;2024-03-06T14:24:49;11.38;;;4.95;;
53714;SDS011;39608;55.630;37.864;2024-03-06T14:29:51;9.77;;;4.03;;
53714;SDS011;39608;55.630;37.864;2024-03-06T14:34:54;11.95;;;4.63;;
53714;SDS011;39608;55.630;37.864;2024-03-06T14:39:58;9.35;;;5.47;;
53714;SDS011;39608;55.630;37.864;2024-03-06T14:44:59;12.07;;;3.90;;
53714;SDS011;39608;55.630;37.864;2024-03-06T14:50:05;9.35;;;4.35;;
53714;SDS011;39608;55.630;37.864;2024-03-06T14:55:09;11.40;;;6.13;;
53714;SDS011;39608;55.630;37.864;2024-03-06T15:00:12;8.85;;;3.83;;
53714;SDS011;39608;55.630;37.864;2024-03-06T15:05:17;9.93;;;3.67;;
53714;SDS011;39608;55.630;37.864;2024-03-06T15:10:20;6.00;;;1.88;;
53714;SDS011;39608;55.630;37.864;2024-03-06T15:15:23;7.72;;;3.22;;
53714;SDS011;39608;55.630;37.864;2024-03-06T15:20:25;15.65;;;5.30;;
53714;SDS011;39608;55.630;37.864;2024-03-06T15:25:29;17.55;;;4.55;;
53714;SDS011;39608;55.630;37.864;2024-03-06T15:30:31;12.07;;;3.13;;
53714;SDS011;39608;55.630;37.864;2024-03-06T15:35:34;6.28;;;2.25;;
53714;SDS011;39608;55.630;37.864;2024-03-06T15:40:38;17.20;;;3.22;;
53714;SDS011;39608;55.630;37.864;2024-03-06T15:45:40;9.25;;;2.28;;
53714;SDS011;39608;55.630;37.864;2024-03-06T15:50:42;16.83;;;2.75;;
53714;SDS011;39608;55.630;37.864;2024-03-06T15:55:46;4.72;;;2.40;;
53714;SDS011;39608;55.630;37.864;2024-03-06T16:00:48;12.85;;;3.63;;
53714;SDS011;39608;55.630;37.864;2024-03-06T16:05:50;7.45;;;2.65;;
53714;SDS011;39608;55.630;37.864;2024-03-06T16:10:53;6.32;;;2.15;;
53714;SDS011;39608;55.630;37.864;2024-03-06T16:15:55;11.13;;;2.20;;
53714;SDS011;39608;55.630;37.864;2024-03-06T16:20:58;10.35;;;3.15;;
53714;SDS011;39608;55.630;37.864;2024-03-06T16:26:03;11.27;;;3.88;;
53714;SDS011;39608;55.630;37.864;2024-03-06T16:31:07;22.50;;;5.00;;
53714;SDS011;39608;55.630;37.864;2024-03-06T16:36:09;14.40;;;3.78;;
53714;SDS011;39608;55.630;37.864;2024-03-06T16:41:12;13.13;;;3.65;;
53714;SDS011;39608;55.630;37.864;2024-03-06T16:46:16;7.45;;;2.38;;
53714;SDS011;39608;55.630;37.864;2024-03-06T16:51:18;10.75;;;2.25;;
53714;SDS011;39608;55.630;37.864;2024-03-06T16:56:22;10.15;;;1.70;;
53714;SDS011;39608;55.630;37.864;2024-03-06T17:01:24;19.42;;;2.00;;
53714;SDS011;39608;55.630;37.864;2024-03-06T17:06:26;13.55;;;3.72;;
53714;SDS011;39608;55.630;37.864;2024-03-06T17:11:30;18.80;;;3.90;;
53714;SDS011;39608;55.630;37.864;2024-03-06T17:16:32;8.27;;;3.45;;
53714;SDS011;39608;55.630;37.864;2024-03-06T17:21:35;9.65;;;3.60;;
53714;SDS011;39608;55.630;37.864;2024-03-06T17:26:39;9.90;;;3.90;;
53714;SDS011;39608;55.630;37.864;2024-03-06T17:31:42;3.00;;;1.88;;
53714;SDS011;39608;55.630;37.864;2024-03-06T17:36:44;7.00;;;2.35;;
53714;SDS011;39608;55.630;37.864;2024-03-06T17:41:48;6.65;;;3.65;;
53714;SDS011;39608;55.630;37.864;2024-03-06T17:46:50;9.40;;;1.85;;
53714;SDS011;39608;55.630;37.864;2024-03-06T17:51:52;15.30;;;2.72;;
53714;SDS011;39608;55.630;37.864;2024-03-06T17:56:56;19.42;;;3.15;;
53714;SDS011;39608;55.630;37.864;2024-03-06T18:01:59;11.60;;;2.35;;
53714;SDS011;39608;55.630;37.864;2024-03-06T18:07:02;7.53;;;2.47;;
53714;SDS011;39608;55.630;37.864;2024-03-06T18:12:06;11.68;;;2.15;;
53714;SDS011;39608;55.630;37.864;2024-03-06T18:17:08;7.25;;;2.30;;
53714;SDS011;39608;55.630;37.864;2024-03-06T18:22:10;11.45;;;3.33;;
53714;SDS011;39608;55.630;37.864;2024-03-06T18:27:14;10.15;;;2.78;;
53714;SDS011;39608;55.630;37.864;2024-03-06T18:32:16;6.47;;;2.38;;
53714;SDS011;39608;55.630;37.864;2024-03-06T18:37:19;12.23;;;4.30;;
53714;SDS011;39608;55.630;37.864;2024-03-06T18:42:22;20.20;;;7.05;;
53714;SDS011;39608;55.630;37.864;2024-03-06T18:47:24;21.70;;;5.38;;
53714;SDS011;39608;55.630;37.864;2024-03-06T18:52:26;10.32;;;3.78;;
53714;SDS011;39608;55.630;37.864;2024-03-06T18:57:29;5.13;;;1.92;;
53714;SDS011;39608;55.630;37.864;2024-03-06T19:02:32;7.18;;;2.55;;
53714;SDS011;39608;55.630;37.864;2024-03-06T19:07:34;7.32;;;2.25;;
53714;SDS011;39608;55.630;37.864;2024-03-06T19:12:39;8.98;;;1.88;;
53714;SDS011;39608;55.630;37.864;2024-03-06T19:17:42;4.30;;;2.25;;
53714;SDS011;39608;55.630;37.864;2024-03-06T19:22:45;7.43;;;2.63;;
53714;SDS011;39608;55.630;37.864;2024-03-06T19:27:48;7.78;;;2.03;;
53714;SDS011;39608;55.630;37.864;2024-03-06T19:32:50;13.55;;;2.60;;
53714;SDS011;39608;55.630;37.864;2024-03-06T19:37:52;9.43;;;2.80;;
53714;SDS011;39608;55.630;37.864;2024-03-06T19:42:56;13.13;;;2.78;;
53714;SDS011;39608;55.630;37.864;2024-03-06T19:47:58;9.57;;;2.17;;
53714;SDS011;39608;55.630;37.864;2024-03-06T19:53:00;11.50;;;2.55;;
53714;SDS011;39608;55.630;37.864;2024-03-06T19:58:04;11.20;;;2.50;;
53714;SDS011;39608;55.630;37.864;2024-03-06T20:03:06;7.00;;;1.63;;
53714;SDS011;39608;55.630;37.864;2024-03-06T20:08:08;14.50;;;2.45;;
53714;SDS011;39608;55.630;37.864;2024-03-06T20:13:11;10.27;;;2.35;;
53714;SDS011;39608;55.630;37.864;2024-03-06T20:18:13;12.23;;;2.50;;
53714;SDS011;39608;55.630;37.864;2024-03-06T20:23:15;5.22;;;2.47;;
53714;SDS011;39608;55.630;37.864;2024-03-06T20:28:19;13.27;;;2.63;;
53714;SDS011;39608;55.630;37.864;2024-03-06T20:33:22;9.38;;;2.70;;
53714;SDS011;39608;55.630;37.864;2024-03-06T20:38:24;5.97;;;2.50;;
53714;SDS011;39608;55.630;37.864;2024-03-06T20:43:28;30.95;;;7.22;;
53714;SDS011;39608;55.630;37.864;2024-03-06T20:48:30;40.38;;;9.10;;
53714;SDS011;39608;55.630;37.864;2024-03-06T20:53:33;39.88;;;8.35;;
53714;SDS011;39608;55.630;37.864;2024-03-06T20:58:36;26.23;;;7.40;;
53714;SDS011;39608;55.630;37.864;2024-03-06T21:03:38;29.00;;;7.97;;
53714;SDS011;39608;55.630;37.864;2024-03-06T21:08:40;24.65;;;6.53;;
53714;SDS011;39608;55.630;37.864;2024-03-06T21:13:44;22.80;;;5.93;;
53714;SDS011;39608;55.630;37.864;2024-03-06T21:18:46;24.67;;;6.63;;
53714;SDS011;39608;55.630;37.864;2024-03-06T21:23:48;17.15;;;4.88;;
53714;SDS011;39608;55.630;37.864;2024-03-06T21:28:51;14.50;;;5.10;;
53714;SDS011;39608;55.630;37.864;2024-03-06T21:33:54;28.10;;;5.85;;
53714;SDS011;39608;55.630;37.864;2024-03-06T21:38:56;20.30;;;5.78;;
53714;SDS011;39608;55.630;37.864;2024-03-06T21:44:00;14.82;;;4.57;;
53714;SDS011;39608;55.630;37.864;2024-03-06T21:49:03;12.63;;;3.50;;
53714;SDS011;39608;55.630;37.864;2024-03-06T21:54:07;13.23;;;3.90;;
53714;SDS011;39608;55.630;37.864;2024-03-06T21:59:10;12.05;;;3.35;;
53714;SDS011;39608;55.630;37.864;2024-03-06T22:04:12;14.52;;;3.33;;
53714;SDS011;39608;55.630;37.864;2024-03-06T22:09:14;11.18;;;4.60;;
53714;SDS011;39608;55.630;37.864;2024-03-06T22:14:18;13.55;;;4.25;;
53714;SDS011;39608;55.630;37.864;2024-03-06T22:19:20;11.07;;;4.43;;
53714;SDS011;39608;55.630;37.864;2024-03-06T22:24:23;14.70;;;4.32;;
53714;SDS011;39608;55.630;37.864;2024-03-06T22:29:26;20.13;;;5.38;;
53714;SDS011;39608;55.630;37.864;2024-03-06T22:34:28;17.27;;;4.43;;
53714;SDS011;39608;55.630;37.864;2024-03-06T22:39:30;9.43;;;4.03;;
53714;SDS011;39608;55.630;37.864;2024-03-06T22:44:37;23.42;;;5.40;;
53714;SDS011;39608;55.630;37.864;2024-03-06T22:49:39;17.88;;;4.78;;
53714;SDS011;39608;55.630;37.864;2024-03-06T22:54:42;19.38;;;5.55;;
53714;SDS011;39608;55.630;37.864;2024-03-06T22:59:45;27.38;;;6.30;;
53714;SDS011;39608;55.630;37.864;2024-03-06T23:04:47;19.65;;;4.10;;
53714;SDS011;39608;55.630;37.864;2024-03-06T23:09:49;22.08;;;4.95;;
53714;SDS011;39608;55.630;37.864;2024-03-06T23:14:52;19.63;;;4.88;;
53714;SDS011;39608;55.630;37.864;2024-03-06T23:19:54;17.15;;;5.13;;
53714;SDS011;39608;55.630;37.864;2024-03-06T23:24:56;15.07;;;5.15;;
53714;SDS011;39608;55.630;37.864;2024-03-06T23:30:00;15.32;;;5.18;;
53714;SDS011;39608;55.630;37.864;2024-03-06T23:35:05;17.23;;;5.15;;
53714;SDS011;39608;55.630;37.864;2024-03-06T23:40:10;16.58;;;5.43;;
53714;SDS011;39608;55.630;37.864;2024-03-06T23:45:15;17.88;;;5.72;;
53714;SDS011;39608;55.630;37.864;2024-03-06T23:50:18;33.47;;;6.57;;
53714;SDS011;39608;55.630;37.864;2024-03-06T23:55:20;39.60;;;7.40;;
